Bluffton, Iowa
Current Conditions -  °F | °C
As of 6:15 AM on Monday 26 Jan 2015 (Local Time) from KDEH Reporting Station
Light Snow Light Snow  
Wind Chill: 11°   Ceiling: 300
Heat Index: 21°   Visibility: 1.5mi
Dew Point: 19°   Wind: 9mph
Humidity: 93%   Direction: 170°S
Pressure: 29.83"   Gusts: NA
Location:  43.3626°N, 91.8164°W
Report Text: KDEH 261215Z AUTO 17008KT 1 1/2SM -SN OVC003 M06/M07 A2983 RMK AO2
Loading
Personal Weather Stations






























Interactive Weather Map New forecast layout! Learn more

10-Day Weather Forecast

Advertisements
Track Severe Weather on mobile